Time;durP1;ratioP1;P1;durP2;ratioP2;P2;SDS_P1;SDS_P2;PMS_P1;PMS_P2;Temp;Humidity;BMP_temperature;BMP_pressure;BME280_temperature;BME280_humidity;BME280_pressure;Samples;Min_cycle;Max_cycle;Signal;HPM_P1;HPM_P2
2022/04/25 00:02:19;;;;;;;6.53;2.25;;;17.40;72.30;;;;;;5026048;28;20100;-77
2022/04/25 00:04:46;;;;;;;3.63;1.30;;;17.40;72.30;;;;;;5026571;28;20052;-79
2022/04/25 00:07:12;;;;;;;3.40;1.48;;;17.30;72.20;;;;;;5026789;28;20023;-78
2022/04/25 00:09:39;;;;;;;5.05;1.65;;;17.30;72.20;;;;;;5027640;28;20175;-77
2022/04/25 00:12:06;;;;;;;5.32;2.45;;;17.30;72.20;;;;;;5025697;28;20091;-78
2022/04/25 00:14:32;;;;;;;6.07;1.92;;;17.30;72.20;;;;;;5025592;28;20388;-76
2022/04/25 00:16:59;;;;;;;3.10;1.88;;;17.30;72.30;;;;;;5025299;28;20661;-74
2022/04/25 00:19:25;;;;;;;6.50;1.83;;;17.30;72.40;;;;;;5026409;28;20029;-76
2022/04/25 00:21:52;;;;;;;12.40;2.17;;;17.30;72.40;;;;;;5006012;28;20021;-78
2022/04/25 00:24:19;;;;;;;16.25;2.72;;;17.30;73.10;;;;;;5026239;28;20018;-77
2022/04/25 00:26:46;;;;;;;8.35;2.80;;;17.30;72.60;;;;;;5009066;28;20083;-76
2022/04/25 00:29:13;;;;;;;9.05;2.63;;;17.20;72.60;;;;;;5008301;28;20022;-75
2022/04/25 00:31:40;;;;;;;5.10;2.35;;;17.20;72.60;;;;;;5027690;28;20033;-78
2022/04/25 00:34:07;;;;;;;6.20;3.15;;;17.20;72.60;;;;;;5026020;28;20392;-77
2022/04/25 00:36:33;;;;;;;5.28;2.17;;;17.20;72.40;;;;;;5027022;28;20036;-77
2022/04/25 00:39:00;;;;;;;5.95;2.60;;;17.20;72.30;;;;;;5024789;28;20029;-77
2022/04/25 00:41:26;;;;;;;10.63;2.88;;;17.20;72.30;;;;;;5026960;28;20034;-76
2022/04/25 00:43:57;;;;;;;17.20;4.18;;;17.20;72.30;;;;;;5026453;28;20029;-72
2022/04/25 00:46:25;;;;;;;7.38;2.90;;;17.10;72.40;;;;;;5025653;28;20034;-72
2022/04/25 00:48:52;;;;;;;8.77;2.58;;;17.10;72.40;;;;;;5027301;28;20021;-76
2022/04/25 00:51:20;;;;;;;14.27;3.00;;;17.10;72.50;;;;;;5024536;28;20026;-76
2022/04/25 00:53:47;;;;;;;9.23;2.38;;;17.10;72.70;;;;;;5026969;28;20006;-67
2022/04/25 00:56:15;;;;;;;12.23;2.80;;;17.10;72.80;;;;;;5025306;28;20103;-75
2022/04/25 00:58:45;;;;;;;8.43;2.20;;;17.10;73.00;;;;;;5025937;28;20155;-77
2022/04/25 01:01:13;;;;;;;8.55;2.20;;;17.10;73.00;;;;;;5026094;28;20021;-77
2022/04/25 01:03:39;;;;;;;5.97;1.98;;;17.10;73.10;;;;;;5026787;28;20017;-77
2022/04/25 01:06:06;;;;;;;9.20;2.15;;;17.00;73.10;;;;;;5025759;28;20018;-78
2022/04/25 01:08:34;;;;;;;14.13;2.08;;;17.00;73.30;;;;;;5025322;28;20559;-73
2022/04/25 01:11:05;;;;;;;11.18;1.40;;;17.00;73.70;;;;;;5026885;28;20053;-71
2022/04/25 01:13:32;;;;;;;4.25;1.40;;;17.00;73.80;;;;;;5024761;28;20040;-77
2022/04/25 01:15:59;;;;;;;6.65;1.90;;;17.00;73.70;;;;;;5027353;28;20021;-73
2022/04/25 01:18:25;;;;;;;7.28;2.78;;;17.00;73.60;;;;;;5006651;28;20026;-74
2022/04/25 01:20:58;;;;;;;12.77;2.28;;;17.00;73.40;;;;;;5007645;28;20033;-68
2022/04/25 01:28:55;;;;;;;11.65;2.95;;;17.00;73.40;;;;;;5030417;28;20045;-72
2022/04/25 01:31:22;;;;;;;13.93;2.30;;;17.00;73.40;;;;;;5029654;28;20496;-75
2022/04/25 01:33:48;;;;;;;8.82;2.00;;;17.00;73.40;;;;;;5009592;28;20521;-72
2022/04/25 01:36:15;;;;;;;6.90;1.40;;;17.00;73.30;;;;;;5030171;28;20038;-66
2022/04/25 01:38:42;;;;;;;13.80;3.00;;;17.00;73.20;;;;;;5028927;28;20005;-69
2022/04/25 01:41:08;;;;;;;7.00;2.65;;;17.00;73.30;;;;;;5030398;28;20056;-67
2022/04/25 01:43:38;;;;;;;4.70;1.65;;;16.90;73.30;;;;;;5027610;28;20087;-74
2022/04/25 01:46:05;;;;;;;6.50;2.13;;;17.00;73.40;;;;;;5026046;28;20101;-66
2022/04/25 01:48:31;;;;;;;9.00;2.08;;;17.00;73.30;;;;;;5026892;28;20032;-73
2022/04/25 01:50:58;;;;;;;8.93;1.60;;;16.90;73.30;;;;;;5028110;28;20029;-77
2022/04/25 01:53:25;;;;;;;2.33;1.17;;;16.90;73.30;;;;;;5025471;28;20032;-70
2022/04/25 01:55:51;;;;;;;5.50;2.97;;;16.90;73.10;;;;;;5026226;28;20575;-66
2022/04/25 01:58:20;;;;;;;5.82;1.33;;;16.90;72.90;;;;;;5027882;28;20021;-68
2022/04/25 02:00:47;;;;;;;4.30;1.70;;;16.90;72.80;;;;;;5026978;28;20057;-74
2022/04/25 02:03:14;;;;;;;3.03;1.10;;;16.90;72.70;;;;;;5027085;28;20060;-67
2022/04/25 02:05:40;;;;;;;7.13;1.42;;;16.90;72.80;;;;;;5025539;28;20680;-76
2022/04/25 02:08:07;;;;;;;7.55;2.38;;;16.90;72.70;;;;;;5028480;28;20676;-68
2022/04/25 02:10:34;;;;;;;6.95;1.40;;;16.90;72.70;;;;;;5027408;28;20034;-65
2022/04/25 02:13:01;;;;;;;13.15;1.48;;;16.90;72.70;;;;;;5026200;28;20503;-70
2022/04/25 02:15:28;;;;;;;6.82;1.33;;;17.00;72.60;;;;;;5028444;28;20036;-69
2022/04/25 02:17:54;;;;;;;2.30;0.90;;;16.90;72.50;;;;;;5025393;28;20021;-74
2022/04/25 02:20:21;;;;;;;2.88;0.88;;;16.90;72.30;;;;;;5027314;28;20049;-75
2022/04/25 02:22:48;;;;;;;3.70;1.67;;;16.90;72.20;;;;;;5026457;28;20029;-74
2022/04/25 02:25:14;;;;;;;4.03;1.42;;;16.90;72.10;;;;;;5027877;28;20105;-72
2022/04/25 02:27:41;;;;;;;4.30;1.30;;;16.90;71.90;;;;;;5026439;28;20017;-68
2022/04/25 02:30:08;;;;;;;4.32;1.00;;;16.90;71.80;;;;;;5026977;28;20024;-72
2022/04/25 02:32:35;;;;;;;2.83;1.70;;;16.90;71.60;;;;;;5027301;28;20056;-74
2022/04/25 02:35:01;;;;;;;7.78;1.55;;;16.90;71.50;;;;;;5026916;28;20021;-68
2022/04/25 02:37:28;;;;;;;3.05;1.67;;;16.90;71.30;;;;;;5027177;28;20022;-64
2022/04/25 02:39:54;;;;;;;5.13;1.80;;;16.90;71.10;;;;;;5025520;28;20090;-69
2022/04/25 02:42:21;;;;;;;3.08;1.65;;;16.80;71.00;;;;;;5027116;28;20025;-69
2022/04/25 02:44:48;;;;;;;6.97;1.33;;;16.80;70.80;;;;;;5026553;28;20033;-75
2022/04/25 02:47:15;;;;;;;2.20;1.17;;;16.80;70.70;;;;;;5027217;28;20119;-76
2022/04/25 02:49:41;;;;;;;2.13;1.23;;;16.80;70.70;;;;;;5026327;28;20018;-74
2022/04/25 02:52:07;;;;;;;8.57;1.42;;;16.80;70.80;;;;;;5015939;28;20096;-64
2022/04/25 02:54:34;;;;;;;3.60;1.50;;;16.80;70.80;;;;;;5026335;28;20029;-76
2022/04/25 02:57:00;;;;;;;8.95;1.88;;;16.80;70.80;;;;;;5025974;28;20021;-73
2022/04/25 02:59:27;;;;;;;3.65;1.20;;;16.80;71.10;;;;;;5028093;28;20481;-74
2022/04/25 03:01:54;;;;;;;2.00;1.15;;;16.80;71.10;;;;;;5027140;28;20032;-71
2022/04/25 03:04:20;;;;;;;3.88;1.67;;;16.70;70.80;;;;;;5028494;28;20535;-73
2022/04/25 03:06:47;;;;;;;3.95;1.30;;;16.80;70.70;;;;;;5027832;28;20495;-72
2022/04/25 03:09:13;;;;;;;3.53;1.33;;;16.80;70.50;;;;;;5027319;28;20029;-74
2022/04/25 03:11:40;;;;;;;10.32;1.92;;;16.80;70.40;;;;;;5027976;28;20545;-73
2022/04/25 03:14:06;;;;;;;5.57;1.58;;;16.70;70.40;;;;;;5025968;28;20086;-71
2022/04/25 03:16:33;;;;;;;6.35;1.52;;;16.70;70.40;;;;;;5029186;28;20017;-77
2022/04/25 03:18:59;;;;;;;5.25;1.13;;;16.70;70.40;;;;;;5026988;28;20080;-72
2022/04/25 03:21:26;;;;;;;5.10;2.22;;;16.80;70.30;;;;;;5025773;28;20132;-75
2022/04/25 03:23:53;;;;;;;3.83;1.58;;;16.70;70.20;;;;;;5026027;28;20481;-74
2022/04/25 03:26:20;;;;;;;2.85;1.65;;;16.70;70.10;;;;;;5028405;28;20037;-73
2022/04/25 03:28:46;;;;;;;9.40;1.60;;;16.70;70.00;;;;;;5027335;28;20057;-77
2022/04/25 03:31:16;;;;;;;6.40;1.63;;;16.70;70.00;;;;;;5025771;28;20087;-69
2022/04/25 03:33:45;;;;;;;4.95;1.70;;;16.70;70.00;;;;;;5008261;28;20044;-70
2022/04/25 03:36:12;;;;;;;5.75;1.55;;;16.70;70.30;;;;;;5008073;28;20044;-76
2022/04/25 03:38:41;;;;;;;3.97;1.85;;;16.60;70.20;;;;;;5027427;28;20056;-74
2022/04/25 03:41:08;;;;;;;9.05;1.55;;;16.60;69.90;;;;;;5026582;28;20075;-77
2022/04/25 03:43:34;;;;;;;5.80;1.38;;;16.60;69.80;;;;;;5027698;28;20048;-75
2022/04/25 03:46:01;;;;;;;3.22;1.38;;;16.60;69.80;;;;;;5025383;28;20041;-77
2022/04/25 03:48:28;;;;;;;18.80;2.15;;;16.60;69.70;;;;;;5026899;28;20026;-74
2022/04/25 03:50:54;;;;;;;7.03;2.03;;;16.60;69.70;;;;;;5027790;28;20033;-74
2022/04/25 03:53:21;;;;;;;6.22;2.10;;;16.60;69.70;;;;;;5026929;28;20038;-77
2022/04/25 03:58:35;;;;;;;5.88;2.25;;;16.60;70.10;;;;;;5024157;28;20040;-74
2022/04/25 04:01:03;;;;;;;6.20;1.60;;;16.50;70.30;;;;;;5027081;28;20025;-69
2022/04/25 04:03:33;;;;;;;12.88;2.97;;;16.50;70.40;;;;;;5025315;28;20025;-75
2022/04/25 04:05:59;;;;;;;11.35;3.22;;;16.60;70.60;;;;;;5026300;28;20373;-83
2022/04/25 04:08:25;;;;;;;8.93;4.40;;;16.50;70.10;;;;;;5027409;28;20026;-77
2022/04/25 04:10:52;;;;;;;25.30;17.75;;;16.50;71.00;;;;;;5025949;28;20046;-73
2022/04/25 04:13:19;;;;;;;33.53;22.48;;;16.50;71.50;;;;;;5027284;28;20091;-73
2022/04/25 04:15:45;;;;;;;28.80;16.02;;;16.50;71.40;;;;;;5024723;28;20021;-75
2022/04/25 04:18:12;;;;;;;14.65;9.48;;;16.50;71.20;;;;;;5026236;28;20418;-77
2022/04/25 04:20:38;;;;;;;10.73;6.97;;;16.50;71.00;;;;;;5025423;28;20045;-75
2022/04/25 04:23:06;;;;;;;13.25;6.18;;;16.50;70.80;;;;;;5027504;28;20034;-83
2022/04/25 04:25:33;;;;;;;16.00;5.43;;;16.40;70.70;;;;;;5026871;28;20461;-79
2022/04/25 04:27:59;;;;;;;9.63;5.95;;;16.40;70.70;;;;;;5025382;28;20020;-80
2022/04/25 04:30:26;;;;;;;19.60;13.55;;;16.40;70.80;;;;;;5008999;28;21047;-81
2022/04/25 04:32:53;;;;;;;28.05;17.05;;;16.40;70.90;;;;;;5025428;28;20051;-81
2022/04/25 04:38:05;;;;;;;13.80;8.10;;;16.40;71.10;;;;;;5025905;28;20049;-75
2022/04/25 04:40:36;;;;;;;16.23;5.57;;;16.40;71.20;;;;;;5024696;28;20034;-75
2022/04/25 04:43:03;;;;;;;11.20;4.32;;;16.40;71.30;;;;;;5006586;28;20041;-76
2022/04/25 04:45:33;;;;;;;15.27;4.93;;;16.40;71.50;;;;;;5006610;28;20030;-75
2022/04/25 04:48:00;;;;;;;13.85;3.65;;;16.40;71.50;;;;;;5023985;28;20380;-73
2022/04/25 04:50:27;;;;;;;16.23;4.65;;;16.40;71.80;;;;;;5024803;28;20103;-81
2022/04/25 04:52:59;;;;;;;6.20;2.75;;;16.40;71.90;;;;;;5025637;28;20025;-78
2022/04/25 04:55:26;;;;;;;5.30;2.78;;;16.30;71.90;;;;;;5025380;28;20814;-79
2022/04/25 04:57:53;;;;;;;20.60;5.65;;;16.40;72.10;;;;;;5027454;28;20037;-83
2022/04/25 05:00:23;;;;;;;16.42;4.43;;;16.40;72.20;;;;;;5027753;28;20021;-82
2022/04/25 05:02:49;;;;;;;9.38;2.25;;;16.40;72.30;;;;;;5029404;28;20020;-76
2022/04/25 05:05:16;;;;;;;9.57;4.28;;;16.30;72.60;;;;;;5030149;28;20579;-82
2022/04/25 05:07:42;;;;;;;8.52;3.38;;;16.30;72.50;;;;;;5028753;28;20059;-80
2022/04/25 05:10:09;;;;;;;4.47;2.40;;;16.30;72.60;;;;;;5029794;28;20514;-82
2022/04/25 05:12:50;;;;;;;12.68;2.50;;;16.30;72.60;;;;;;5030092;28;20032;-83
2022/04/25 05:15:18;;;;;;;7.50;3.30;;;16.30;72.70;;;;;;5021255;28;20026;-83
2022/04/25 05:17:48;;;;;;;13.15;3.20;;;16.30;72.80;;;;;;5029669;28;20436;-84
2022/04/25 05:20:15;;;;;;;8.80;3.38;;;16.30;73.40;;;;;;5027321;28;20042;-82
2022/04/25 05:22:44;;;;;;;10.98;3.08;;;16.30;73.80;;;;;;5011750;28;20033;-81
2022/04/25 05:25:14;;;;;;;16.65;4.13;;;16.30;73.90;;;;;;5029289;28;20373;-78
2022/04/25 05:27:45;;;;;;;6.07;3.03;;;16.30;74.00;;;;;;5030377;28;20689;-80
2022/04/25 05:30:13;;;;;;;8.57;2.80;;;16.40;74.30;;;;;;5027166;28;20546;-83
2022/04/25 05:32:53;;;;;;;7.93;3.08;;;16.40;74.30;;;;;;5028900;28;20120;-74
2022/04/25 05:35:22;;;;;;;13.68;3.45;;;16.40;74.30;;;;;;5030278;28;20032;-82
2022/04/25 05:37:49;;;;;;;10.63;4.18;;;16.40;74.40;;;;;;5028861;28;20017;-79
2022/04/25 05:40:17;;;;;;;9.93;3.70;;;16.40;74.40;;;;;;5028530;28;20029;-78
2022/04/25 05:42:45;;;;;;;9.50;3.03;;;16.40;74.40;;;;;;5028413;28;20022;-79
2022/04/25 05:45:13;;;;;;;10.13;4.40;;;16.50;74.50;;;;;;5029364;28;20017;-75
2022/04/25 05:47:40;;;;;;;25.52;4.43;;;16.40;74.40;;;;;;5027786;28;20013;-73
2022/04/25 05:52:54;;;;;;;7.28;3.63;;;16.40;74.70;;;;;;5030033;28;20040;-81
2022/04/25 05:55:21;;;;;;;9.80;4.05;;;16.40;74.70;;;;;;5027998;28;20397;-76
2022/04/25 05:57:48;;;;;;;7.40;3.38;;;16.50;74.80;;;;;;5029905;28;20104;-81
2022/04/25 06:00:15;;;;;;;9.70;4.05;;;16.50;74.70;;;;;;5029269;28;20025;-76
2022/04/25 06:03:21;;;;;;;9.02;4.15;;;16.50;74.70;;;;;;5029386;28;20026;-81
2022/04/25 06:06:27;;;;;;;13.77;4.32;;;16.50;74.80;;;;;;5028640;28;21292;-78
2022/04/25 06:09:34;;;;;;;13.55;5.20;;;16.50;74.90;;;;;;5028020;28;20075;-76
2022/04/25 06:12:41;;;;;;;11.43;5.03;;;16.50;75.20;;;;;;5024830;28;20047;-74
2022/04/25 06:15:47;;;;;;;14.60;4.05;;;16.50;75.20;;;;;;5011259;28;20491;-75
2022/04/25 06:18:53;;;;;;;12.35;3.60;;;16.50;75.80;;;;;;5027856;28;20056;-71
2022/04/25 06:21:59;;;;;;;16.00;4.93;;;16.50;76.30;;;;;;5026054;28;20053;-75
2022/04/25 06:25:05;;;;;;;15.45;5.13;;;16.60;76.20;;;;;;5027115;28;20091;-80
2022/04/25 06:28:11;;;;;;;13.10;4.57;;;16.60;76.30;;;;;;5023346;28;20033;-81
2022/04/25 06:31:17;;;;;;;9.48;4.03;;;16.60;76.50;;;;;;5025372;28;20021;-74
2022/04/25 06:33:55;;;;;;;7.03;4.32;;;16.60;76.50;;;;;;5026623;28;20028;-79
2022/04/25 06:36:21;;;;;;;12.13;4.03;;;16.60;76.60;;;;;;5009876;28;20054;-72
2022/04/25 06:38:48;;;;;;;15.63;4.55;;;16.60;76.50;;;;;;5026659;28;20036;-72
2022/04/25 06:41:15;;;;;;;18.90;4.97;;;16.70;76.60;;;;;;5026981;28;20017;-69
2022/04/25 06:43:41;;;;;;;9.00;5.93;;;16.70;76.50;;;;;;5026250;28;20109;-80
2022/04/25 06:46:08;;;;;;;11.00;6.90;;;16.70;76.50;;;;;;5027172;28;20056;-72
2022/04/25 06:48:34;;;;;;;14.35;6.38;;;16.70;76.60;;;;;;5026264;28;20510;-79
2022/04/25 06:51:01;;;;;;;19.50;6.60;;;16.70;77.20;;;;;;5026853;28;20048;-74
2022/04/25 06:53:28;;;;;;;11.20;4.30;;;16.80;76.60;;;;;;5027555;28;20497;-69
2022/04/25 06:55:54;;;;;;;8.45;4.10;;;16.80;76.50;;;;;;5025674;28;20116;-73
2022/04/25 06:58:22;;;;;;;14.48;4.20;;;16.80;76.60;;;;;;5027082;28;20067;-76
2022/04/25 07:00:49;;;;;;;20.95;3.58;;;16.80;76.40;;;;;;5026632;28;20914;-77
2022/04/25 07:03:16;;;;;;;10.77;3.55;;;16.90;76.50;;;;;;5026613;28;20025;-77
2022/04/25 07:05:43;;;;;;;7.93;3.65;;;16.90;76.40;;;;;;5027641;28;20469;-79
2022/04/25 07:08:09;;;;;;;9.82;3.13;;;16.90;76.40;;;;;;5027372;28;20030;-79
2022/04/25 07:10:36;;;;;;;14.05;4.28;;;17.00;76.50;;;;;;5025078;28;20041;-78
2022/04/25 07:13:02;;;;;;;7.72;3.58;;;17.00;76.40;;;;;;5027726;28;20079;-73
2022/04/25 07:15:29;;;;;;;12.32;3.03;;;17.00;76.30;;;;;;5028496;28;20029;-77
2022/04/25 07:17:56;;;;;;;6.65;2.65;;;17.00;76.40;;;;;;5026026;28;20562;-73
2022/04/25 07:20:24;;;;;;;17.13;2.85;;;17.10;76.30;;;;;;5026543;28;20111;-78
2022/04/25 07:31:04;;;;;;;8.02;2.47;;;17.20;75.80;;;;;;5025275;28;20045;-76
2022/04/25 07:33:32;;;;;;;8.55;1.88;;;17.20;75.40;;;;;;5026643;28;20496;-78
2022/04/25 07:35:59;;;;;;;11.73;3.30;;;17.20;75.00;;;;;;5040124;28;20029;-78
2022/04/25 07:38:27;;;;;;;14.68;2.13;;;17.30;75.00;;;;;;5026588;28;20618;-73
2022/04/25 07:40:53;;;;;;;16.20;2.35;;;17.30;74.80;;;;;;5026674;28;20029;-75
2022/04/25 07:43:20;;;;;;;9.73;2.97;;;17.30;74.80;;;;;;5027760;28;20013;-75
2022/04/25 07:45:47;;;;;;;12.88;2.35;;;17.30;74.40;;;;;;5025729;28;20029;-74
2022/04/25 07:48:13;;;;;;;10.70;3.22;;;17.40;74.20;;;;;;5026348;28;20032;-80
2022/04/25 07:50:40;;;;;;;9.80;2.95;;;17.40;74.20;;;;;;5027252;28;20057;-76
2022/04/25 07:53:06;;;;;;;6.75;3.03;;;17.40;73.90;;;;;;5026881;28;20010;-79
2022/04/25 07:55:33;;;;;;;8.07;2.83;;;17.50;73.70;;;;;;5027422;28;20032;-82
2022/04/25 07:58:00;;;;;;;14.43;3.53;;;17.50;73.20;;;;;;5025815;28;20018;-82
2022/04/25 08:00:27;;;;;;;10.23;2.95;;;17.50;72.90;;;;;;5026922;28;20044;-82
2022/04/25 08:02:53;;;;;;;6.70;2.72;;;17.60;72.70;;;;;;5026840;28;20052;-80
2022/04/25 08:05:20;;;;;;;10.05;3.88;;;17.60;72.60;;;;;;5025226;28;20036;-79
2022/04/25 08:07:46;;;;;;;9.00;3.70;;;17.60;72.40;;;;;;5025757;28;20274;-75
2022/04/25 08:10:13;;;;;;;17.05;3.45;;;17.70;72.20;;;;;;5025594;28;20025;-80
2022/04/25 08:18:11;;;;;;;33.40;4.97;;;17.80;71.50;;;;;;5024970;28;20055;-76
2022/04/25 08:20:41;;;;;;;14.18;3.38;;;17.80;70.90;;;;;;5008659;28;20386;-82
2022/04/25 08:23:10;;;;;;;9.70;3.15;;;17.90;71.20;;;;;;5024836;28;20025;-81
2022/04/25 08:25:37;;;;;;;5.25;2.30;;;17.90;70.90;;;;;;5024080;28;20469;-81
2022/04/25 08:28:05;;;;;;;11.20;2.17;;;17.90;70.50;;;;;;5023766;28;20017;-76
2022/04/25 08:30:32;;;;;;;5.22;1.70;;;18.00;69.90;;;;;;5025763;28;20037;-71
2022/04/25 08:33:00;;;;;;;7.32;2.25;;;18.00;69.70;;;;;;5025168;28;20029;-77
2022/04/25 08:35:28;;;;;;;4.50;1.38;;;18.10;69.70;;;;;;5023193;28;20151;-71
2022/04/25 08:37:55;;;;;;;7.18;1.73;;;18.10;69.40;;;;;;5025115;28;20026;-81
2022/04/25 08:40:22;;;;;;;11.07;1.65;;;18.20;69.70;;;;;;5025131;28;20101;-82
2022/04/25 08:42:48;;;;;;;11.55;1.90;;;18.20;69.10;;;;;;5026754;28;20179;-72
2022/04/25 08:45:15;;;;;;;5.95;2.13;;;18.30;68.70;;;;;;5026384;28;20018;-76
2022/04/25 08:47:55;;;;;;;10.10;1.25;;;18.30;68.20;;;;;;5026849;28;20014;-76
2022/04/25 08:50:22;;;;;;;4.03;2.92;;;18.40;67.00;;;;;;5025421;28;20018;-77
2022/04/25 08:52:50;;;;;;;3.88;1.27;;;18.40;66.70;;;;;;5024286;28;21088;-74
2022/04/25 08:55:17;;;;;;;4.72;1.40;;;18.40;66.30;;;;;;5025404;28;20018;-78
2022/04/25 08:57:45;;;;;;;3.70;0.80;;;18.50;66.10;;;;;;5023344;28;20026;-80
2022/04/25 09:00:13;;;;;;;13.85;1.85;;;18.50;65.30;;;;;;5025657;28;20022;-73
2022/04/25 09:02:40;;;;;;;9.02;1.50;;;18.60;65.50;;;;;;5024156;28;20018;-77
2022/04/25 09:05:08;;;;;;;21.33;1.85;;;18.60;65.40;;;;;;5025561;28;20040;-81
2022/04/25 09:07:39;;;;;;;7.45;1.10;;;18.70;64.90;;;;;;5023249;28;20116;-71
2022/04/25 09:10:08;;;;;;;7.78;1.33;;;18.70;64.60;;;;;;5024865;28;20395;-77
2022/04/25 09:12:41;;;;;;;5.20;1.15;;;18.80;63.70;;;;;;5023267;28;20033;-71
2022/04/25 09:15:08;;;;;;;8.80;1.83;;;18.80;62.50;;;;;;5024354;28;20017;-74
2022/04/25 09:17:39;;;;;;;7.43;1.75;;;18.80;62.10;;;;;;5025589;28;20025;-68
2022/04/25 09:20:07;;;;;;;5.68;1.30;;;18.90;62.50;;;;;;5022372;28;20029;-77
2022/04/25 09:22:42;;;;;;;3.60;0.90;;;18.90;61.90;;;;;;5026336;28;20040;-79
2022/04/25 09:25:16;;;;;;;3.42;0.82;;;19.00;61.40;;;;;;5025860;28;20377;-79
2022/04/25 09:27:44;;;;;;;2.67;0.95;;;19.00;61.40;;;;;;5024616;28;20030;-78
2022/04/25 09:30:18;;;;;;;3.03;0.90;;;19.10;60.50;;;;;;5026485;28;20025;-79
2022/04/25 09:32:54;;;;;;;1.33;0.70;;;19.10;59.90;;;;;;5024637;28;20034;-73
2022/04/25 09:35:37;;;;;;;1.58;0.52;;;19.10;59.90;;;;;;5008508;28;20033;-77
2022/04/25 09:38:10;;;;;;;5.15;1.00;;;19.20;59.60;;;;;;5023355;28;20108;-76
2022/04/25 09:40:38;;;;;;;5.35;0.60;;;19.20;60.20;;;;;;5023505;28;20013;-72
2022/04/25 09:43:15;;;;;;;3.92;1.10;;;19.30;59.90;;;;;;5025740;28;20028;-77
2022/04/25 09:45:44;;;;;;;1.73;0.95;;;19.40;59.70;;;;;;5023721;28;20026;-77
2022/04/25 09:48:12;;;;;;;1.70;0.68;;;19.40;59.80;;;;;;5029469;28;20028;-77
2022/04/25 09:50:39;;;;;;;3.92;0.93;;;19.40;59.40;;;;;;5028703;28;20032;-78
2022/04/25 09:53:08;;;;;;;7.68;1.10;;;19.50;59.00;;;;;;5027873;28;20536;-76
2022/04/25 09:55:36;;;;;;;5.80;1.08;;;19.50;58.80;;;;;;5029031;28;20108;-74
2022/04/25 09:58:23;;;;;;;2.22;0.63;;;19.60;58.80;;;;;;5028157;28;20108;-71
2022/04/25 10:00:53;;;;;;;3.55;0.85;;;19.70;58.10;;;;;;5029804;28;20018;-72
2022/04/25 10:03:34;;;;;;;2.88;0.73;;;19.70;57.90;;;;;;5026762;28;20761;-78
2022/04/25 10:06:03;;;;;;;4.57;0.88;;;19.70;57.70;;;;;;5028457;28;20041;-77
2022/04/25 10:08:34;;;;;;;1.45;0.57;;;19.80;57.60;;;;;;5026508;28;20032;-78
2022/04/25 10:11:12;;;;;;;1.60;0.85;;;19.80;56.70;;;;;;5027782;28;20523;-78
2022/04/25 10:13:39;;;;;;;3.30;1.23;;;19.90;57.30;;;;;;5026760;28;20443;-71
2022/04/25 10:16:06;;;;;;;2.65;0.85;;;19.90;57.10;;;;;;5032379;28;20057;-75
2022/04/25 10:18:32;;;;;;;4.53;0.57;;;20.00;56.90;;;;;;5013531;28;20068;-71
2022/04/25 10:21:01;;;;;;;2.40;1.13;;;20.00;57.10;;;;;;5008937;28;20492;-74
2022/04/25 10:23:28;;;;;;;5.97;1.60;;;20.10;57.50;;;;;;5028090;28;20030;-77
2022/04/25 10:26:01;;;;;;;5.90;1.20;;;20.10;56.60;;;;;;5027196;28;20104;-78
2022/04/25 10:28:55;;;;;;;3.08;0.88;;;20.20;56.30;;;;;;5027958;28;20412;-78
2022/04/25 10:31:38;;;;;;;2.05;0.95;;;20.20;56.50;;;;;;5014699;28;20512;-79
2022/04/25 10:34:05;;;;;;;10.95;1.08;;;20.30;56.50;;;;;;5027699;28;20024;-76
2022/04/25 10:36:38;;;;;;;4.25;0.88;;;20.30;56.20;;;;;;5027705;28;20045;-80
2022/04/25 10:39:45;;;;;;;2.83;1.33;;;20.40;56.90;;;;;;5027419;28;20583;-81
2022/04/25 10:44:59;;;;;;;2.73;0.70;;;20.50;56.70;;;;;;5027586;28;20078;-81
2022/04/25 10:47:26;;;;;;;14.20;2.10;;;20.50;57.10;;;;;;5008778;28;20408;-81
2022/04/25 10:49:53;;;;;;;8.07;2.92;;;20.60;56.00;;;;;;5028074;28;20036;-76
2022/04/25 10:52:42;;;;;;;3.47;0.85;;;20.60;56.00;;;;;;5028837;28;20068;-78
2022/04/25 10:55:20;;;;;;;6.97;1.08;;;20.70;55.10;;;;;;5026386;28;20124;-79
2022/04/25 10:58:07;;;;;;;13.93;1.17;;;20.70;54.70;;;;;;5026814;28;20057;-76
2022/04/25 11:00:36;;;;;;;1.20;0.82;;;20.70;54.20;;;;;;5025774;28;20111;-79
2022/04/25 11:03:09;;;;;;;5.90;1.17;;;20.80;54.00;;;;;;5026950;28;20022;-79
2022/04/25 11:05:48;;;;;;;2.35;0.90;;;20.80;53.60;;;;;;5027099;28;20044;-79
2022/04/25 11:08:21;;;;;;;3.13;0.93;;;20.90;54.00;;;;;;5027214;28;20045;-80
2022/04/25 11:10:57;;;;;;;3.10;0.90;;;20.90;53.20;;;;;;5028265;28;20409;-73
2022/04/25 11:13:26;;;;;;;5.13;1.23;;;20.90;53.00;;;;;;5024920;28;20805;-79
2022/04/25 11:15:58;;;;;;;8.82;1.70;;;21.00;53.20;;;;;;5025930;28;20026;-77
2022/04/25 11:18:38;;;;;;;8.63;2.38;;;21.10;53.60;;;;;;5027482;28;20032;-79
2022/04/25 11:21:12;;;;;;;5.88;1.40;;;21.10;52.70;;;;;;5025967;28;20048;-76
2022/04/25 11:23:44;;;;;;;1.77;0.70;;;21.20;51.90;;;;;;5028524;28;20089;-73
2022/04/25 11:26:20;;;;;;;2.75;1.42;;;21.20;51.30;;;;;;5026866;28;20033;-79
2022/04/25 11:31:27;;;;;;;4.90;1.17;;;21.30;50.70;;;;;;5027571;28;20048;-76
2022/04/25 11:34:01;;;;;;;3.65;1.20;;;21.20;51.20;;;;;;5026899;28;20029;-71
2022/04/25 11:36:30;;;;;;;5.70;1.02;;;21.30;50.90;;;;;;5027759;28;20029;-79
2022/04/25 11:39:51;;;;;;;3.17;0.70;;;21.30;50.80;;;;;;5026093;28;20105;-80
2022/04/25 11:42:59;;;;;;;1.20;0.70;;;21.40;50.50;;;;;;5026882;28;20639;-79
2022/04/25 11:46:05;;;;;;;5.53;1.00;;;21.50;50.30;;;;;;5026045;28;20067;-76
2022/04/25 11:49:11;;;;;;;1.05;0.93;;;21.50;50.60;;;;;;5026234;28;20033;-79
2022/04/25 11:51:39;;;;;;;3.45;0.70;;;21.60;50.30;;;;;;5024443;28;20046;-68
2022/04/25 11:54:12;;;;;;;4.05;0.80;;;21.70;50.40;;;;;;5026350;28;20049;-75
2022/04/25 11:56:40;;;;;;;2.42;0.90;;;21.70;50.50;;;;;;5024778;28;20029;-75
2022/04/25 11:59:09;;;;;;;12.55;1.50;;;21.80;50.20;;;;;;5025411;28;20025;-73
2022/04/25 12:01:38;;;;;;;3.67;1.00;;;21.80;50.20;;;;;;5024122;28;20040;-76
2022/04/25 12:04:24;;;;;;;1.13;0.88;;;21.90;49.90;;;;;;5004327;28;20547;-70
2022/04/25 12:06:54;;;;;;;6.35;0.85;;;21.90;50.10;;;;;;5025951;28;20032;-72
2022/04/25 12:18:33;;;;;;;1.45;1.13;;;22.00;48.40;;;;;;5023436;28;20061;-79
2022/04/25 12:21:08;;;;;;;2.30;1.10;;;22.10;48.40;;;;;;5024095;28;20049;-75
2022/04/25 12:23:39;;;;;;;1.45;0.85;;;22.10;47.90;;;;;;5004548;28;20388;-69
2022/04/25 12:26:08;;;;;;;1.17;0.60;;;22.10;47.90;;;;;;5026177;28;20072;-73
2022/04/25 12:28:39;;;;;;;4.53;0.68;;;22.10;47.90;;;;;;5023766;28;20056;-78
2022/04/25 12:31:15;;;;;;;10.07;1.13;;;22.10;47.80;;;;;;5023123;28;20021;-70
2022/04/25 12:33:44;;;;;;;3.65;1.05;;;22.10;48.00;;;;;;5024078;28;20760;-79
2022/04/25 12:36:27;;;;;;;3.40;0.82;;;22.10;47.90;;;;;;5021827;28;20030;-67
2022/04/25 12:38:53;;;;;;;2.55;0.93;;;22.20;47.80;;;;;;5023691;28;20428;-79
2022/04/25 12:41:54;;;;;;;3.45;0.60;;;22.20;48.00;;;;;;5022220;28;20069;-73
2022/04/25 12:44:40;;;;;;;7.82;1.45;;;22.20;47.90;;;;;;5032405;28;20528;-69
2022/04/25 12:47:12;;;;;;;4.80;0.70;;;22.20;48.00;;;;;;5023718;28;20080;-76
2022/04/25 12:49:46;;;;;;;6.53;0.85;;;22.20;48.10;;;;;;5005866;28;20018;-73
2022/04/25 12:52:18;;;;;;;3.42;0.68;;;22.20;48.00;;;;;;5023095;28;20181;-76
2022/04/25 12:54:44;;;;;;;2.53;0.50;;;22.20;48.40;;;;;;5005229;28;20057;-73
2022/04/25 12:57:19;;;;;;;3.30;0.80;;;22.20;48.80;;;;;;5024616;28;20026;-78
2022/04/25 13:00:01;;;;;;;5.93;1.00;;;22.20;49.00;;;;;;5024678;28;20025;-78
2022/04/25 13:02:32;;;;;;;2.95;1.00;;;22.20;49.10;;;;;;5023762;28;20559;-71
2022/04/25 13:05:07;;;;;;;5.05;1.30;;;22.20;48.90;;;;;;5024487;28;20032;-75
2022/04/25 13:07:37;;;;;;;3.40;0.60;;;22.20;49.10;;;;;;5022268;28;20105;-77
2022/04/25 13:10:20;;;;;;;5.35;0.70;;;22.20;49.00;;;;;;5024728;28;20025;-80
2022/04/25 13:12:53;;;;;;;8.23;1.30;;;22.20;48.80;;;;;;5024741;28;20128;-76
2022/04/25 13:15:38;;;;;;;7.32;1.10;;;22.20;48.90;;;;;;5023814;28;20064;-72
2022/04/25 13:18:44;;;;;;;3.20;0.80;;;22.20;49.00;;;;;;5024805;28;20025;-82
2022/04/25 13:21:18;;;;;;;7.95;0.90;;;22.20;48.90;;;;;;5004801;28;20048;-77
2022/04/25 13:23:47;;;;;;;4.00;0.73;;;22.20;48.90;;;;;;5027967;28;20125;-76
2022/04/25 13:26:18;;;;;;;8.52;0.90;;;22.10;48.90;;;;;;5028396;28;20041;-77
2022/04/25 13:28:45;;;;;;;2.70;0.80;;;22.10;49.10;;;;;;5028061;28;20017;-74
2022/04/25 13:31:12;;;;;;;2.28;0.68;;;22.10;48.90;;;;;;5027351;28;20029;-81
2022/04/25 13:33:48;;;;;;;5.68;0.60;;;22.10;48.60;;;;;;5028980;28;20392;-79
2022/04/25 13:36:15;;;;;;;7.82;1.38;;;22.10;48.70;;;;;;5011835;28;20029;-79
2022/04/25 13:38:41;;;;;;;3.92;0.98;;;22.00;48.70;;;;;;5028459;28;20120;-80
2022/04/25 13:41:11;;;;;;;1.92;0.45;;;22.00;48.70;;;;;;5030087;28;20025;-78
2022/04/25 13:43:37;;;;;;;5.10;0.60;;;22.00;48.90;;;;;;5027678;28;20115;-73
2022/04/25 13:46:04;;;;;;;5.82;1.05;;;21.90;49.20;;;;;;5029806;28;20354;-81